createdAt,value
2022-09-15T00:00:37.656Z,2.47
2022-09-15T00:01:39.132Z,2.30
2022-09-15T00:02:40.588Z,2.30
2022-09-15T00:03:42.411Z,2.37
2022-09-15T00:04:43.731Z,2.08
2022-09-15T00:05:45.451Z,2.10
2022-09-15T00:06:46.738Z,2.30
2022-09-15T00:07:48.336Z,2.30
2022-09-15T00:08:49.767Z,2.53
2022-09-15T00:09:51.094Z,2.63
2022-09-15T00:10:54.046Z,2.40
2022-09-15T00:11:55.387Z,2.67
2022-09-15T00:12:56.690Z,2.20
2022-09-15T00:13:59.830Z,2.60
2022-09-15T00:15:01.283Z,2.57
2022-09-15T00:16:03.252Z,2.50
2022-09-15T00:17:04.617Z,2.83
2022-09-15T00:18:07.075Z,2.60
2022-09-15T00:19:08.482Z,2.40
2022-09-15T00:20:10.385Z,2.67
2022-09-15T00:21:22.258Z,2.43
2022-09-15T00:22:23.961Z,2.67
2022-09-15T00:23:25.252Z,2.45
2022-09-15T00:24:26.621Z,2.88
2022-09-15T00:25:27.923Z,2.30
2022-09-15T00:26:29.827Z,2.57
2022-09-15T00:27:31.715Z,2.70
2022-09-15T00:28:33.370Z,2.40
2022-09-15T00:29:35.786Z,2.40
2022-09-15T00:30:40.222Z,2.42
2022-09-15T00:31:41.567Z,2.80
2022-09-15T00:32:42.911Z,2.60
2022-09-15T00:33:48.200Z,2.60
2022-09-15T00:34:49.988Z,3.07
2022-09-15T00:35:52.916Z,2.33
2022-09-15T00:36:54.212Z,2.20
2022-09-15T00:37:55.503Z,2.47
2022-09-15T00:38:57.183Z,2.83
2022-09-15T00:39:58.569Z,2.80
2022-09-15T00:41:00.646Z,2.40
2022-09-15T00:42:03.880Z,3.00
2022-09-15T00:43:08.545Z,2.50
2022-09-15T00:44:15.956Z,2.53
2022-09-15T00:45:17.540Z,2.67
2022-09-15T00:46:29.227Z,2.60
2022-09-15T00:47:32.882Z,2.60
2022-09-15T00:48:34.757Z,2.27
2022-09-15T00:49:37.151Z,2.53
2022-09-15T00:50:39.454Z,2.43
2022-09-15T00:51:44.759Z,2.33
2022-09-15T00:52:48.676Z,2.27
2022-09-15T00:53:50.708Z,2.30
2022-09-15T00:54:57.900Z,1.93
2022-09-15T00:56:00.268Z,2.13
2022-09-15T00:57:03.153Z,2.50
2022-09-15T00:58:06.763Z,2.20
2022-09-15T00:59:11.090Z,2.00
2022-09-15T01:00:14.253Z,2.20
2022-09-15T01:01:16.010Z,1.90
2022-09-15T01:02:17.457Z,1.93
2022-09-15T01:03:19.545Z,2.07
2022-09-15T01:04:20.895Z,1.80
2022-09-15T01:05:24.078Z,1.87
2022-09-15T01:06:35.410Z,1.90
2022-09-15T01:07:41.876Z,1.90
2022-09-15T01:08:52.098Z,2.10
2022-09-15T01:09:57.022Z,1.63
2022-09-15T01:10:59.265Z,2.10
2022-09-15T01:12:01.185Z,1.70
2022-09-15T01:13:04.086Z,1.97
2022-09-15T01:14:05.639Z,1.80
2022-09-15T01:15:07.576Z,1.93
2022-09-15T01:16:29.016Z,1.60
2022-09-15T01:17:39.420Z,1.87
2022-09-15T01:18:51.039Z,1.93
2022-09-15T01:20:00.678Z,1.95
2022-09-15T01:21:08.876Z,2.00
2022-09-15T01:22:28.860Z,1.60
2022-09-15T01:23:42.888Z,2.10
2022-09-15T01:24:59.291Z,1.90
2022-09-15T01:26:09.842Z,1.67
2022-09-15T01:27:42.201Z,1.63
2022-09-15T01:28:44.368Z,1.50
2022-09-15T01:30:04.446Z,1.70
2022-09-15T01:31:25.389Z,1.60
2022-09-15T01:32:48.625Z,1.60
2022-09-15T01:33:54.883Z,1.57
2022-09-15T01:35:10.747Z,1.67
2022-09-15T01:36:17.811Z,2.10
2022-09-15T01:37:22.772Z,1.53
2022-09-15T01:38:32.846Z,1.80
2022-09-15T01:39:37.498Z,1.53
2022-09-15T01:40:41.742Z,1.40
2022-09-15T01:41:46.627Z,1.63
2022-09-15T01:42:48.253Z,1.60
2022-09-15T01:43:53.448Z,1.70
2022-09-15T01:44:57.664Z,1.73
2022-09-15T01:45:59.798Z,1.63
2022-09-15T01:47:05.314Z,1.90
2022-09-15T01:48:08.601Z,1.42
2022-09-15T01:49:12.005Z,1.47
2022-09-15T01:50:17.934Z,1.70
2022-09-15T01:51:19.646Z,1.67
2022-09-15T01:52:22.066Z,1.80
2022-09-15T01:53:24.043Z,1.53
2022-09-15T01:54:28.102Z,1.40
2022-09-15T01:55:37.881Z,1.20
2022-09-15T01:56:39.229Z,1.60
2022-09-15T01:57:40.514Z,1.43
2022-09-15T01:58:42.094Z,1.27
2022-09-15T01:59:44.354Z,1.93
2022-09-15T02:00:49.498Z,1.40
2022-09-15T02:01:53.904Z,1.63
2022-09-15T02:02:57.928Z,1.50
2022-09-15T02:04:09.661Z,1.60
2022-09-15T02:05:18.035Z,1.63
2022-09-15T02:06:22.573Z,1.57
2022-09-15T02:07:36.099Z,1.70
2022-09-15T02:08:52.780Z,1.47
2022-09-15T02:10:16.668Z,1.35
2022-09-15T02:11:27.968Z,1.30
2022-09-15T02:12:43.097Z,1.27
2022-09-15T02:13:54.080Z,1.37
2022-09-15T02:14:56.738Z,1.20
2022-09-15T02:15:59.928Z,1.30
2022-09-15T02:17:02.067Z,1.30
2022-09-15T02:18:05.486Z,1.30
2022-09-15T02:19:19.645Z,1.40
2022-09-15T02:20:23.627Z,1.00
2022-09-15T02:21:31.597Z,1.50
2022-09-15T02:22:35.086Z,1.37
2022-09-15T02:23:40.469Z,1.30
2022-09-15T02:24:43.935Z,1.30
2022-09-15T02:25:48.888Z,1.23
2022-09-15T02:26:51.175Z,1.40
2022-09-15T02:27:54.728Z,1.25
2022-09-15T02:28:58.090Z,1.60
2022-09-15T02:30:03.014Z,1.20
2022-09-15T02:31:06.037Z,1.20
2022-09-15T02:32:08.352Z,1.30
2022-09-15T02:33:11.800Z,1.27
2022-09-15T02:34:19.450Z,1.50
2022-09-15T02:35:21.096Z,1.40
2022-09-15T02:36:23.919Z,2.07
2022-09-15T02:37:26.329Z,1.73
2022-09-15T02:38:29.551Z,1.80
2022-09-15T02:39:32.920Z,1.50
2022-09-15T02:40:34.574Z,1.47
2022-09-15T02:41:36.548Z,1.30
2022-09-15T02:42:39.095Z,1.50
2022-09-15T02:43:50.304Z,1.40
2022-09-15T02:44:51.738Z,1.20
2022-09-15T02:45:54.415Z,1.67
2022-09-15T02:46:56.005Z,1.30
2022-09-15T02:47:57.891Z,1.30
2022-09-15T02:48:59.260Z,2.00
2022-09-15T02:50:01.012Z,1.33
2022-09-15T02:51:02.335Z,1.40
2022-09-15T02:52:03.618Z,1.73
2022-09-15T02:53:04.952Z,1.50
2022-09-15T02:54:06.472Z,1.40
2022-09-15T02:55:08.090Z,1.60
2022-09-15T02:56:09.993Z,1.50
2022-09-15T02:57:11.641Z,1.27
2022-09-15T02:58:12.923Z,2.00
2022-09-15T02:59:14.593Z,1.87
2022-09-15T03:00:17.268Z,1.30
2022-09-15T03:01:18.646Z,1.48
2022-09-15T03:02:20.432Z,1.50
2022-09-15T03:03:22.109Z,1.20
2022-09-15T03:04:23.411Z,1.63
2022-09-15T03:05:26.537Z,1.42
2022-09-15T03:06:30.710Z,1.40
2022-09-15T03:07:32.034Z,1.47
2022-09-15T03:08:33.365Z,1.40
2022-09-15T03:09:34.655Z,1.40
2022-09-15T03:10:35.940Z,1.58
2022-09-15T03:11:37.336Z,1.42
2022-09-15T03:12:39.717Z,1.40
2022-09-15T03:13:41.023Z,1.63
2022-09-15T03:14:42.828Z,1.52
2022-09-15T03:15:44.132Z,1.45
2022-09-15T03:16:45.422Z,1.63
2022-09-15T03:17:47.593Z,1.63
2022-09-15T03:18:49.145Z,1.97
2022-09-15T03:19:50.716Z,1.40
2022-09-15T03:20:55.998Z,1.57
2022-09-15T03:21:57.465Z,1.92
2022-09-15T03:22:58.872Z,1.40
2022-09-15T03:24:00.481Z,1.53
2022-09-15T03:25:01.853Z,1.58
2022-09-15T03:26:03.818Z,1.37
2022-09-15T03:27:05.226Z,2.07
2022-09-15T03:28:06.517Z,1.60
2022-09-15T03:29:07.830Z,1.40
2022-09-15T03:30:09.692Z,1.35
2022-09-15T03:31:11.034Z,1.60
2022-09-15T03:32:12.378Z,1.37
2022-09-15T03:33:13.644Z,1.70
2022-09-15T03:34:15.011Z,1.40
2022-09-15T03:35:16.334Z,1.30
2022-09-15T03:36:17.637Z,1.67
2022-09-15T03:37:18.921Z,2.00
2022-09-15T03:38:20.228Z,1.80
2022-09-15T03:39:21.539Z,1.60
2022-09-15T03:40:22.925Z,1.60
2022-09-15T03:41:25.093Z,1.70
2022-09-15T03:42:26.748Z,1.73
2022-09-15T03:43:28.986Z,1.77
2022-09-15T03:44:30.412Z,1.67
2022-09-15T03:45:31.720Z,1.63
2022-09-15T03:46:33.073Z,1.53
2022-09-15T03:47:34.376Z,2.23
2022-09-15T03:48:36.082Z,1.80
2022-09-15T03:49:37.339Z,1.73
2022-09-15T03:50:38.656Z,1.60
2022-09-15T03:51:39.963Z,1.70
2022-09-15T03:52:41.281Z,1.70
2022-09-15T03:53:42.839Z,1.63
2022-09-15T03:54:44.206Z,1.60
2022-09-15T03:55:46.036Z,1.60
2022-09-15T03:56:48.961Z,2.20
2022-09-15T03:57:50.264Z,1.80
2022-09-15T03:58:51.744Z,1.67
2022-09-15T03:59:53.033Z,1.77
2022-09-15T04:00:54.400Z,1.80
2022-09-15T04:01:55.774Z,1.70
2022-09-15T04:02:57.097Z,2.03
2022-09-15T04:03:58.657Z,2.00
2022-09-15T04:04:59.997Z,1.70
2022-09-15T04:06:01.357Z,2.00
2022-09-15T04:07:02.709Z,1.90
2022-09-15T04:08:04.612Z,1.70
2022-09-15T04:09:06.039Z,1.80
2022-09-15T04:10:07.874Z,2.23
2022-09-15T04:11:10.568Z,1.80
2022-09-15T04:12:11.921Z,1.57
2022-09-15T04:13:13.203Z,2.20
2022-09-15T04:14:14.690Z,1.70
2022-09-15T04:15:16.084Z,1.70
2022-09-15T04:16:19.029Z,2.00
2022-09-15T04:17:20.378Z,1.80
2022-09-15T04:18:21.675Z,1.60
2022-09-15T04:19:22.952Z,1.80
2022-09-15T04:20:24.218Z,2.08
2022-09-15T04:21:26.706Z,1.90
2022-09-15T04:22:30.520Z,1.70
2022-09-15T04:23:32.098Z,2.40
2022-09-15T04:24:33.401Z,2.17
2022-09-15T04:25:34.667Z,1.60
2022-09-15T04:26:36.413Z,1.93
2022-09-15T04:27:38.847Z,2.10
2022-09-15T04:28:40.158Z,1.90
2022-09-15T04:29:42.101Z,1.90
2022-09-15T04:30:43.358Z,1.80
2022-09-15T04:31:45.097Z,1.73
2022-09-15T04:32:46.492Z,1.97
2022-09-15T04:33:48.134Z,2.00
2022-09-15T04:34:49.445Z,1.60
2022-09-15T04:35:57.643Z,1.67
2022-09-15T04:36:58.905Z,1.70
2022-09-15T04:38:00.188Z,1.83
2022-09-15T04:39:01.537Z,2.00
2022-09-15T04:40:02.965Z,2.00
2022-09-15T04:41:04.670Z,2.00
2022-09-15T04:42:07.741Z,1.97
2022-09-15T04:43:09.393Z,2.00
2022-09-15T04:44:10.692Z,1.83
2022-09-15T04:45:11.996Z,2.30
2022-09-15T04:46:13.988Z,1.70
2022-09-15T04:47:15.466Z,1.93
2022-09-15T04:48:16.854Z,1.60
2022-09-15T04:49:18.128Z,1.80
2022-09-15T04:50:19.492Z,1.80
2022-09-15T04:51:22.323Z,1.90
2022-09-15T04:52:23.600Z,2.03
2022-09-15T04:53:24.986Z,2.10
2022-09-15T04:54:26.317Z,1.70
2022-09-15T04:55:27.686Z,2.03
2022-09-15T04:56:29.135Z,2.03
2022-09-15T04:57:30.427Z,2.03
2022-09-15T04:58:35.013Z,2.13
2022-09-15T04:59:36.540Z,2.20
2022-09-15T05:00:43.360Z,2.50
2022-09-15T05:01:45.055Z,2.53
2022-09-15T05:02:46.413Z,2.58
2022-09-15T05:03:47.758Z,2.87
2022-09-15T05:04:51.472Z,2.90
2022-09-15T05:05:52.896Z,2.20
2022-09-15T05:06:54.246Z,2.53
2022-09-15T05:07:55.671Z,2.13
2022-09-15T05:08:57.586Z,2.30
2022-09-15T05:09:58.979Z,1.60
2022-09-15T05:11:04.200Z,1.60
2022-09-15T05:12:05.632Z,1.50
2022-09-15T05:13:06.947Z,1.57
2022-09-15T05:14:09.542Z,1.90
2022-09-15T05:15:11.455Z,1.60
2022-09-15T05:16:14.348Z,1.60
2022-09-15T05:17:15.798Z,1.70
2022-09-15T05:18:17.102Z,2.10
2022-09-15T05:19:18.403Z,1.73
2022-09-15T05:20:19.975Z,1.93
2022-09-15T05:21:21.861Z,1.63
2022-09-15T05:22:23.337Z,2.07
2022-09-15T05:23:24.621Z,1.60
2022-09-15T05:24:26.022Z,1.60
2022-09-15T05:25:28.203Z,1.30
2022-09-15T05:26:29.945Z,1.43
2022-09-15T05:27:32.710Z,1.27
2022-09-15T05:28:34.949Z,1.50
2022-09-15T05:29:36.235Z,1.47
2022-09-15T05:30:43.597Z,1.10
2022-09-15T05:31:45.702Z,1.20
2022-09-15T05:32:47.044Z,1.30
2022-09-15T05:33:49.263Z,1.57
2022-09-15T05:34:50.575Z,1.30
2022-09-15T05:35:54.929Z,1.30
2022-09-15T05:36:57.181Z,1.03
2022-09-15T05:37:58.705Z,1.60
2022-09-15T05:39:01.589Z,1.90
2022-09-15T05:40:08.067Z,1.47
2022-09-15T05:41:10.759Z,1.10
2022-09-15T05:42:12.051Z,1.27
2022-09-15T05:43:13.415Z,1.30
2022-09-15T05:44:14.788Z,1.20
2022-09-15T05:45:16.372Z,1.30
2022-09-15T05:46:18.568Z,1.00
2022-09-15T05:47:20.027Z,1.10
2022-09-15T05:48:21.646Z,1.40
2022-09-15T05:49:23.134Z,1.60
2022-09-15T05:50:24.577Z,1.40
2022-09-15T05:51:26.154Z,1.20
2022-09-15T05:52:27.435Z,1.00
2022-09-15T05:53:29.110Z,0.83
2022-09-15T05:54:30.509Z,1.37
2022-09-15T05:55:36.484Z,0.93
2022-09-15T05:56:37.863Z,1.13
2022-09-15T05:57:39.679Z,1.30
2022-09-15T05:58:41.810Z,1.27
2022-09-15T05:59:43.893Z,1.33
2022-09-15T06:00:45.525Z,1.27
2022-09-15T06:01:46.849Z,1.27
2022-09-15T06:02:48.223Z,1.30
2022-09-15T06:03:49.877Z,1.40
2022-09-15T06:04:51.626Z,1.30
2022-09-15T06:05:59.278Z,1.70
2022-09-15T06:07:00.540Z,1.30
2022-09-15T06:08:01.980Z,2.27
2022-09-15T06:09:05.716Z,1.87
2022-09-15T06:10:07.653Z,2.30
2022-09-15T06:11:12.839Z,2.43
2022-09-15T06:12:16.674Z,2.87
2022-09-15T06:13:23.574Z,2.53
2022-09-15T06:14:24.853Z,2.23
2022-09-15T06:15:26.400Z,2.40
2022-09-15T06:16:27.782Z,2.77
2022-09-15T06:17:31.474Z,2.70
2022-09-15T06:18:33.886Z,2.57
2022-09-15T06:19:35.168Z,2.33
2022-09-15T06:20:36.441Z,2.80
2022-09-15T06:21:37.774Z,3.23
2022-09-15T06:22:39.310Z,3.40
2022-09-15T06:23:41.248Z,3.80
2022-09-15T06:24:42.538Z,3.83
2022-09-15T06:25:43.827Z,4.10
2022-09-15T06:26:45.118Z,4.77
2022-09-15T06:27:48.504Z,4.83
2022-09-15T06:28:50.981Z,5.10
2022-09-15T06:29:52.289Z,5.23
2022-09-15T06:30:54.444Z,5.20
2022-09-15T06:31:57.087Z,5.60
2022-09-15T06:32:58.571Z,6.13
2022-09-15T06:34:00.908Z,5.83
2022-09-15T06:35:07.144Z,6.10
2022-09-15T06:36:10.473Z,5.97
2022-09-15T06:37:11.826Z,6.27
2022-09-15T06:38:13.343Z,5.90
2022-09-15T06:39:14.663Z,5.20
2022-09-15T06:40:16.137Z,5.13
2022-09-15T06:41:17.656Z,5.00
2022-09-15T06:42:19.267Z,4.80
2022-09-15T06:43:21.956Z,4.93
2022-09-15T06:44:23.299Z,5.17
2022-09-15T06:45:24.656Z,5.80
2022-09-15T06:46:26.584Z,5.40
2022-09-15T06:47:33.675Z,6.33
2022-09-15T06:48:35.552Z,6.13
2022-09-15T06:49:36.870Z,6.93
2022-09-15T06:50:38.233Z,6.77
2022-09-15T06:51:39.545Z,7.90
2022-09-15T06:52:43.437Z,7.53
2022-09-15T06:53:45.143Z,8.17
2022-09-15T06:54:46.472Z,8.93
2022-09-15T06:55:47.778Z,9.60
2022-09-15T06:56:49.465Z,8.90
2022-09-15T06:57:50.771Z,8.87
2022-09-15T06:58:52.215Z,9.17
2022-09-15T06:59:53.672Z,10.60
2022-09-15T07:00:55.102Z,6.43
2022-09-15T07:01:57.543Z,8.17
2022-09-15T07:03:00.224Z,10.23
2022-09-15T07:04:04.106Z,10.53
2022-09-15T07:05:05.509Z,7.37
2022-09-15T07:06:07.910Z,11.47
2022-09-15T07:07:09.223Z,11.47
2022-09-15T07:08:10.504Z,11.23
2022-09-15T07:09:12.230Z,10.63
2022-09-15T07:10:13.505Z,10.77
2022-09-15T07:11:15.486Z,9.33
2022-09-15T07:12:16.789Z,8.43
2022-09-15T07:13:18.062Z,9.50
2022-09-15T07:14:19.385Z,8.63
2022-09-15T07:15:20.947Z,9.33
2022-09-15T07:16:22.671Z,7.60
2022-09-15T07:17:24.075Z,7.70
2022-09-15T07:18:25.686Z,6.47
2022-09-15T07:19:27.188Z,7.00
2022-09-15T07:20:28.463Z,6.60
2022-09-15T07:21:29.726Z,6.40
2022-09-15T07:22:31.554Z,6.20
2022-09-15T07:23:36.043Z,5.77
2022-09-15T07:24:37.322Z,5.70
2022-09-15T07:25:38.671Z,5.70
2022-09-15T07:26:40.806Z,6.20
2022-09-15T07:27:42.124Z,5.40
2022-09-15T07:28:45.130Z,5.83
2022-09-15T07:29:46.540Z,6.30
2022-09-15T07:30:50.352Z,6.63
2022-09-15T07:31:51.930Z,6.17
2022-09-15T07:32:53.985Z,5.83
2022-09-15T07:33:55.469Z,4.87
2022-09-15T07:34:58.525Z,5.17
2022-09-15T07:36:03.900Z,5.00
2022-09-15T07:37:06.192Z,4.70
2022-09-15T07:38:07.579Z,4.90
2022-09-15T07:39:08.973Z,4.63
2022-09-15T07:40:11.596Z,4.30
2022-09-15T07:41:14.195Z,4.23
2022-09-15T07:42:15.572Z,4.40
2022-09-15T07:43:16.894Z,4.30
2022-09-15T07:44:18.247Z,4.47
2022-09-15T07:45:19.826Z,3.63
2022-09-15T07:46:22.140Z,3.73
2022-09-15T07:47:23.426Z,4.03
2022-09-15T07:48:26.540Z,3.80
2022-09-15T07:49:28.309Z,3.93
2022-09-15T07:50:29.567Z,3.77
2022-09-15T07:51:30.888Z,3.50
2022-09-15T07:52:32.429Z,3.43
2022-09-15T07:53:34.110Z,3.40
2022-09-15T07:54:35.538Z,4.17
2022-09-15T07:55:36.880Z,3.30
2022-09-15T07:56:38.181Z,3.40
2022-09-15T07:57:39.422Z,3.43
2022-09-15T07:58:40.704Z,3.50
2022-09-15T07:59:42.116Z,3.73
2022-09-15T08:00:43.464Z,3.20
2022-09-15T08:01:44.877Z,3.00
2022-09-15T08:02:46.214Z,3.60
2022-09-15T08:03:48.888Z,3.43
2022-09-15T08:04:50.316Z,3.20
2022-09-15T08:05:56.611Z,3.50
2022-09-15T08:06:58.195Z,3.40
2022-09-15T08:07:59.448Z,3.33
2022-09-15T08:09:01.953Z,2.90
2022-09-15T08:10:03.450Z,3.40
2022-09-15T08:11:08.459Z,3.53
2022-09-15T08:12:09.807Z,3.00
2022-09-15T08:13:11.163Z,3.20
2022-09-15T08:14:12.771Z,3.47
2022-09-15T08:15:14.075Z,2.97
2022-09-15T08:16:17.112Z,2.87
2022-09-15T08:17:18.500Z,2.87
2022-09-15T08:18:19.871Z,2.97
2022-09-15T08:19:21.323Z,2.90
2022-09-15T08:20:22.634Z,3.07
2022-09-15T08:21:24.146Z,3.00
2022-09-15T08:22:25.447Z,2.93
2022-09-15T08:23:26.794Z,4.00
2022-09-15T08:24:28.677Z,4.87
2022-09-15T08:25:30.190Z,3.40
2022-09-15T08:26:31.487Z,3.33
2022-09-15T08:27:32.867Z,3.23
2022-09-15T08:28:34.337Z,3.70
2022-09-15T08:29:35.691Z,4.30
2022-09-15T08:30:36.965Z,3.30
2022-09-15T08:31:38.420Z,3.40
2022-09-15T08:32:39.744Z,3.80
2022-09-15T08:33:45.418Z,3.53
2022-09-15T08:34:47.286Z,3.20
2022-09-15T08:35:48.617Z,3.20
2022-09-15T08:36:49.933Z,3.70
2022-09-15T08:37:53.121Z,3.97
2022-09-15T08:38:54.505Z,3.63
2022-09-15T08:39:55.826Z,3.40
2022-09-15T08:40:59.043Z,3.20
2022-09-15T08:42:00.980Z,3.20
2022-09-15T08:43:06.085Z,3.53
2022-09-15T08:44:23.517Z,3.50
2022-09-15T08:45:26.572Z,3.20
2022-09-15T08:46:33.655Z,3.23
2022-09-15T08:47:36.826Z,3.30
2022-09-15T08:48:43.707Z,3.40
2022-09-15T08:49:52.462Z,3.27
2022-09-15T08:50:54.594Z,3.73
2022-09-15T08:51:58.206Z,3.90
2022-09-15T08:53:12.706Z,4.03
2022-09-15T08:54:17.323Z,3.77
2022-09-15T08:55:41.472Z,4.00
2022-09-15T08:56:43.449Z,3.07
2022-09-15T08:57:45.086Z,3.47
2022-09-15T08:58:46.518Z,4.10
2022-09-15T08:59:47.902Z,3.83
2022-09-15T09:00:51.861Z,4.70
2022-09-15T09:02:13.439Z,3.90
2022-09-15T09:03:30.042Z,3.63
2022-09-15T09:04:34.345Z,3.63
2022-09-15T09:05:54.487Z,3.37
2022-09-15T09:06:55.751Z,3.93
2022-09-15T09:07:57.065Z,3.70
2022-09-15T09:09:05.098Z,3.20
2022-09-15T09:10:12.961Z,3.03
2022-09-15T09:11:23.314Z,3.37
2022-09-15T09:12:41.039Z,3.40
2022-09-15T09:13:46.661Z,3.33
2022-09-15T09:14:59.990Z,3.50
2022-09-15T09:16:13.983Z,3.70
2022-09-15T09:17:27.599Z,3.47
2022-09-15T09:18:29.336Z,3.73
2022-09-15T09:19:42.517Z,3.83
2022-09-15T09:20:46.655Z,4.30
2022-09-15T09:21:59.742Z,3.80
2022-09-15T09:23:01.677Z,4.03
2022-09-15T09:24:03.218Z,3.80
2022-09-15T09:25:21.083Z,3.77
2022-09-15T09:26:27.131Z,4.27
2022-09-15T09:27:29.443Z,3.80
2022-09-15T09:28:30.794Z,4.50
2022-09-15T09:29:34.472Z,3.70
2022-09-15T09:30:36.040Z,3.87
2022-09-15T09:31:37.657Z,3.57
2022-09-15T09:32:43.703Z,3.37
2022-09-15T09:33:50.903Z,3.83
2022-09-15T09:35:16.043Z,3.43
2022-09-15T09:36:17.432Z,2.90
2022-09-15T09:37:19.419Z,3.10
2022-09-15T09:38:30.355Z,3.20
2022-09-15T09:39:31.877Z,3.00
2022-09-15T09:40:33.659Z,3.20
2022-09-15T09:41:38.897Z,3.07
2022-09-15T09:42:40.414Z,3.20
2022-09-15T09:43:46.215Z,3.00
2022-09-15T09:44:47.658Z,2.90
2022-09-15T09:45:49.118Z,3.13
2022-09-15T09:46:50.454Z,3.07
2022-09-15T09:47:52.222Z,2.70
2022-09-15T09:49:00.876Z,2.73
2022-09-15T09:50:02.260Z,2.87
2022-09-15T09:51:03.803Z,2.80
2022-09-15T09:52:05.189Z,3.07
2022-09-15T09:53:19.051Z,2.77
2022-09-15T09:54:28.189Z,2.60
2022-09-15T09:55:29.477Z,3.00
2022-09-15T09:56:30.759Z,2.60
2022-09-15T09:57:39.926Z,2.80
2022-09-15T09:58:42.487Z,2.47
2022-09-15T09:59:44.934Z,2.53
2022-09-15T10:00:46.911Z,2.23
2022-09-15T10:02:04.409Z,1.97
2022-09-15T10:03:14.889Z,2.70
2022-09-15T10:04:19.451Z,2.13
2022-09-15T10:05:20.773Z,1.90
2022-09-15T10:06:22.424Z,2.10
2022-09-15T10:07:26.924Z,1.67
2022-09-15T10:08:28.265Z,1.93
2022-09-15T10:09:33.260Z,2.60
2022-09-15T10:10:35.490Z,2.67
2022-09-15T10:11:46.145Z,2.50
2022-09-15T10:12:47.711Z,2.00
2022-09-15T10:13:54.554Z,2.20
2022-09-15T10:14:57.316Z,2.10
2022-09-15T10:16:00.282Z,2.20
2022-09-15T10:17:01.774Z,2.17
2022-09-15T10:18:03.123Z,1.93
2022-09-15T10:19:04.545Z,2.33
2022-09-15T10:20:19.861Z,2.37
2022-09-15T10:21:25.095Z,2.07
2022-09-15T10:22:46.687Z,2.03
2022-09-15T10:23:48.005Z,2.20
2022-09-15T10:24:50.174Z,2.03
2022-09-15T10:26:00.446Z,2.80
2022-09-15T10:27:17.408Z,2.53
2022-09-15T10:28:19.675Z,2.70
2022-09-15T10:29:23.258Z,2.53
2022-09-15T10:30:24.885Z,2.67
2022-09-15T10:31:30.914Z,2.43
2022-09-15T10:32:32.295Z,3.33
2022-09-15T10:33:41.763Z,2.60
2022-09-15T10:34:44.084Z,2.67
2022-09-15T10:35:45.553Z,2.53
2022-09-15T10:36:47.003Z,2.10
2022-09-15T10:38:05.801Z,2.60
2022-09-15T10:39:12.661Z,2.97
2022-09-15T10:40:30.664Z,3.07
2022-09-15T10:41:32.656Z,2.50
2022-09-15T10:42:43.951Z,2.70
2022-09-15T10:44:04.078Z,2.70
2022-09-15T10:45:14.502Z,2.60
2022-09-15T10:46:25.155Z,2.70
2022-09-15T10:47:39.732Z,2.97
2022-09-15T10:48:48.141Z,3.10
2022-09-15T10:49:49.656Z,3.10
2022-09-15T10:50:55.206Z,2.73
2022-09-15T10:52:12.297Z,2.40
2022-09-15T10:53:18.481Z,2.50
2022-09-15T10:54:30.385Z,2.87
2022-09-15T10:55:52.974Z,2.63
2022-09-15T10:57:01.226Z,2.17
2022-09-15T10:58:17.113Z,2.90
2022-09-15T10:59:18.362Z,3.33
2022-09-15T11:00:24.061Z,2.60
2022-09-15T11:01:28.193Z,2.60
2022-09-15T11:02:29.617Z,2.57
2022-09-15T11:03:42.080Z,2.50
2022-09-15T11:04:47.195Z,2.40
2022-09-15T11:06:03.339Z,2.23
2022-09-15T11:07:04.648Z,2.00
2022-09-15T11:08:14.764Z,2.40
2022-09-15T11:09:31.953Z,2.20
2022-09-15T11:10:39.247Z,2.23
2022-09-15T11:11:40.561Z,2.20
2022-09-15T11:13:00.508Z,2.00
2022-09-15T11:14:20.622Z,1.63
2022-09-15T11:15:28.095Z,1.70
2022-09-15T11:16:51.695Z,1.57
2022-09-15T11:18:07.975Z,1.80
2022-09-15T11:19:23.701Z,1.63
2022-09-15T11:20:40.095Z,1.60
2022-09-15T11:21:45.958Z,1.43
2022-09-15T11:22:53.819Z,1.50
2022-09-15T11:24:14.268Z,1.93
2022-09-15T11:25:26.563Z,1.60
2022-09-15T11:26:33.286Z,1.60
2022-09-15T11:27:39.572Z,1.57
2022-09-15T11:28:47.305Z,1.53
2022-09-15T11:29:54.857Z,1.60
2022-09-15T11:31:01.318Z,1.70
2022-09-15T11:32:09.757Z,1.60
2022-09-15T11:33:17.174Z,1.40
2022-09-15T11:34:23.896Z,1.90
2022-09-15T11:35:29.182Z,2.03
2022-09-15T11:36:50.872Z,2.00
2022-09-15T11:37:53.973Z,2.00
2022-09-15T11:39:16.108Z,1.80
2022-09-15T11:40:21.916Z,1.60
2022-09-15T11:41:28.463Z,1.43
2022-09-15T11:42:35.892Z,1.70
2022-09-15T11:43:56.375Z,1.17
2022-09-15T11:44:59.032Z,1.60
2022-09-15T11:46:01.556Z,1.50
2022-09-15T11:47:07.965Z,1.43
2022-09-15T11:48:14.716Z,1.57
2022-09-15T11:49:22.492Z,1.50
2022-09-15T11:50:30.224Z,1.60
2022-09-15T11:51:34.880Z,1.20
2022-09-15T11:52:57.085Z,1.50
2022-09-15T11:54:02.687Z,1.60
2022-09-15T11:55:27.061Z,1.60
2022-09-15T11:56:41.908Z,1.20
2022-09-15T11:57:51.218Z,1.80
2022-09-15T11:58:52.464Z,1.60
2022-09-15T11:59:59.376Z,1.70
2022-09-15T12:01:15.835Z,1.50
2022-09-15T12:02:40.233Z,2.10
2022-09-15T12:03:48.259Z,2.00
2022-09-15T12:04:59.943Z,1.50
2022-09-15T12:06:07.234Z,1.27
2022-09-15T12:07:23.810Z,1.38
2022-09-15T12:08:33.732Z,1.10
2022-09-15T12:09:35.373Z,1.00
2022-09-15T12:10:39.182Z,1.10
2022-09-15T12:11:45.142Z,1.08
2022-09-15T12:12:47.618Z,1.33
2022-09-15T12:13:49.327Z,1.27
2022-09-15T12:14:51.756Z,1.70
2022-09-15T12:15:53.657Z,1.23
2022-09-15T12:16:55.616Z,1.33
2022-09-15T12:18:06.644Z,1.47
2022-09-15T12:19:15.090Z,1.48
2022-09-15T12:20:28.442Z,1.57
2022-09-15T12:21:48.713Z,1.30
2022-09-15T12:22:54.338Z,1.30
2022-09-15T12:23:58.650Z,1.30
2022-09-15T12:25:02.886Z,1.20
2022-09-15T12:26:14.180Z,1.00
2022-09-15T12:27:19.498Z,1.40
2022-09-15T12:28:23.889Z,1.33
2022-09-15T12:29:28.143Z,1.10
2022-09-15T12:30:40.396Z,1.30
2022-09-15T12:31:42.327Z,1.35
2022-09-15T12:32:43.645Z,1.30
2022-09-15T12:33:46.041Z,1.33
2022-09-15T12:34:58.378Z,1.60
2022-09-15T12:36:19.933Z,1.80
2022-09-15T12:37:21.831Z,1.60
2022-09-15T12:38:23.292Z,1.60
2022-09-15T12:39:27.618Z,1.80
2022-09-15T12:40:35.266Z,1.88
2022-09-15T12:41:36.676Z,1.63
2022-09-15T12:42:38.321Z,1.65
2022-09-15T12:43:39.707Z,1.52
2022-09-15T12:44:41.004Z,2.33
2022-09-15T12:45:43.796Z,2.63
2022-09-15T12:46:53.874Z,2.70
2022-09-15T12:47:57.412Z,2.50
2022-09-15T12:49:02.200Z,2.38
2022-09-15T12:50:15.887Z,2.60
2022-09-15T12:51:25.949Z,2.60
2022-09-15T12:52:28.472Z,2.65
2022-09-15T12:53:52.571Z,2.22
2022-09-15T12:54:57.080Z,2.40
2022-09-15T12:56:06.985Z,2.53
2022-09-15T12:57:18.834Z,2.40
2022-09-15T12:58:22.519Z,2.80
2022-09-15T12:59:27.937Z,2.85
2022-09-15T13:00:31.007Z,3.15
2022-09-15T13:01:44.698Z,3.33
2022-09-15T13:02:47.305Z,2.65
2022-09-15T13:03:53.838Z,3.72
2022-09-15T13:04:55.580Z,3.90
2022-09-15T13:06:16.004Z,3.60
2022-09-15T13:07:18.399Z,3.42
2022-09-15T13:08:28.920Z,3.70
2022-09-15T13:09:42.922Z,3.25
2022-09-15T13:11:00.816Z,3.80
2022-09-15T13:12:04.088Z,3.78
2022-09-15T13:13:28.725Z,4.53
2022-09-15T13:14:34.228Z,5.10
2022-09-15T13:15:39.393Z,4.03
2022-09-15T13:16:41.046Z,4.28
2022-09-15T13:17:46.135Z,4.82
2022-09-15T13:18:50.360Z,3.45
2022-09-15T13:19:54.031Z,3.65
2022-09-15T13:20:59.767Z,3.70
2022-09-15T13:22:16.156Z,3.95
2022-09-15T13:23:23.280Z,4.40
2022-09-15T13:24:36.021Z,4.05
2022-09-15T13:25:37.463Z,3.90
2022-09-15T13:26:40.216Z,4.20
2022-09-15T13:27:43.512Z,3.83
2022-09-15T13:28:47.146Z,4.30
2022-09-15T13:29:57.712Z,4.50
2022-09-15T13:31:03.822Z,4.90
2022-09-15T13:32:28.092Z,4.78
2022-09-15T13:35:36.382Z,4.60
2022-09-15T13:38:31.808Z,5.03
2022-09-15T13:39:59.854Z,4.90
2022-09-15T13:41:10.076Z,5.45
2022-09-15T13:42:19.929Z,5.78
2022-09-15T13:43:41.176Z,6.18
2022-09-15T13:44:48.648Z,6.03
2022-09-15T13:45:57.867Z,6.43
2022-09-15T13:47:05.383Z,5.78
2022-09-15T13:48:07.060Z,6.07
2022-09-15T13:49:11.163Z,5.37
2022-09-15T13:50:31.059Z,6.85
2022-09-15T13:51:32.685Z,6.90
2022-09-15T13:52:46.504Z,6.80
2022-09-15T13:53:53.940Z,6.55
2022-09-15T13:55:17.166Z,6.38
2022-09-15T13:56:21.620Z,6.18
2022-09-15T13:58:54.281Z,6.35
2022-09-15T13:59:05.086Z,6.60
2022-09-15T14:00:11.698Z,5.70
2022-09-15T14:01:21.185Z,5.75
2022-09-15T14:02:22.754Z,5.82
2022-09-15T14:03:27.372Z,5.70
2022-09-15T14:04:30.809Z,6.50
2022-09-15T14:05:34.110Z,5.80
2022-09-15T14:06:37.767Z,6.50
2022-09-15T14:07:39.454Z,5.82
2022-09-15T14:08:41.661Z,5.93
2022-09-15T14:09:45.219Z,4.82
2022-09-15T14:10:46.592Z,5.27
2022-09-15T14:11:49.261Z,4.88
2022-09-15T14:12:51.516Z,5.00
2022-09-15T14:13:53.619Z,4.55
2022-09-15T14:14:58.073Z,3.63
2022-09-15T14:16:00.693Z,3.78
2022-09-15T14:17:02.426Z,3.30
2022-09-15T14:18:03.905Z,3.63
2022-09-15T14:19:25.493Z,3.60
2022-09-15T14:20:31.907Z,3.65
2022-09-15T14:21:34.604Z,3.67
2022-09-15T14:22:35.974Z,3.28
2022-09-15T14:23:46.488Z,3.30
2022-09-15T14:24:49.972Z,3.90
2022-09-15T14:25:51.318Z,3.80